Time;durP1;ratioP1;P1;durP2;ratioP2;P2;SDS_P1;SDS_P2;PMS_P1;PMS_P2;Temp;Humidity;BMP_temperature;BMP_pressure;BME280_temperature;BME280_humidity;BME280_pressure;Samples;Min_cycle;Max_cycle;Signal;HPM_P1;HPM_P2
2022/04/05 00:00:54;;;;;;;6.20;5.45;;;10.30;92.40;;;;;;5088965;28;20439;-59
2022/04/05 00:03:20;;;;;;;4.63;4.10;;;10.30;92.40;;;;;;5089522;28;20055;-62
2022/04/05 00:05:45;;;;;;;4.63;3.67;;;10.30;92.30;;;;;;5089076;28;20487;-62
2022/04/05 00:08:11;;;;;;;3.42;3.13;;;10.30;92.30;;;;;;5088569;28;20028;-63
2022/04/05 00:10:37;;;;;;;3.33;2.80;;;10.30;92.10;;;;;;5088841;28;20066;-59
2022/04/05 00:13:06;;;;;;;3.30;2.60;;;10.30;92.00;;;;;;5089670;28;20020;-61
2022/04/05 00:15:33;;;;;;;3.45;2.33;;;10.20;91.90;;;;;;5088874;28;20043;-59
2022/04/05 00:17:59;;;;;;;3.63;2.05;;;10.20;91.90;;;;;;5089806;28;20092;-59
2022/04/05 00:20:27;;;;;;;2.40;1.80;;;10.10;91.80;;;;;;5089462;28;20475;-59
2022/04/05 00:22:56;;;;;;;3.13;1.92;;;10.10;91.70;;;;;;5089868;28;20040;-62
2022/04/05 00:25:22;;;;;;;4.07;2.10;;;10.00;91.60;;;;;;5089899;28;20032;-59
2022/04/05 00:27:48;;;;;;;2.65;2.13;;;10.00;91.50;;;;;;5090133;28;20475;-59
2022/04/05 00:30:15;;;;;;;3.22;1.92;;;10.00;91.60;;;;;;5089618;28;20489;-62
2022/04/05 00:32:41;;;;;;;2.72;1.85;;;10.00;91.50;;;;;;5090087;28;20117;-62
2022/04/05 00:35:08;;;;;;;2.28;1.95;;;9.90;91.40;;;;;;5089810;28;20517;-62
2022/04/05 00:37:34;;;;;;;2.42;1.60;;;9.90;91.30;;;;;;5089931;28;20415;-61
2022/04/05 00:40:00;;;;;;;2.13;1.60;;;9.80;91.20;;;;;;5089268;28;20040;-61
2022/04/05 00:42:25;;;;;;;2.20;1.70;;;9.80;91.10;;;;;;5089396;28;20115;-58
2022/04/05 00:44:51;;;;;;;1.63;1.42;;;9.80;91.20;;;;;;5089178;28;20050;-59
2022/04/05 00:47:19;;;;;;;2.25;1.40;;;9.70;91.20;;;;;;5088392;28;20051;-58
2022/04/05 00:49:47;;;;;;;1.50;1.40;;;9.70;91.20;;;;;;5088378;28;20312;-59
2022/04/05 00:52:17;;;;;;;1.25;1.15;;;9.70;91.20;;;;;;5090103;28;20537;-58
2022/04/05 00:54:48;;;;;;;1.23;1.13;;;9.70;91.10;;;;;;5087484;28;20077;-58
2022/04/05 00:57:19;;;;;;;2.90;2.05;;;9.70;91.10;;;;;;5093425;28;20187;-61
2022/04/05 00:59:48;;;;;;;1.98;1.10;;;9.60;91.00;;;;;;5094474;28;20093;-61
2022/04/05 01:02:16;;;;;;;1.67;1.17;;;9.60;91.00;;;;;;5089537;28;20398;-61
2022/04/05 01:04:44;;;;;;;3.28;1.15;;;9.60;90.90;;;;;;5089105;28;20024;-61
2022/04/05 01:07:15;;;;;;;1.58;1.10;;;9.60;90.90;;;;;;5088398;28;20043;-62
2022/04/05 01:09:41;;;;;;;1.80;1.20;;;9.60;90.90;;;;;;5088676;28;20034;-58
2022/04/05 01:12:09;;;;;;;1.40;1.23;;;9.60;90.90;;;;;;5088209;28;20032;-58
2022/04/05 01:14:35;;;;;;;1.77;1.40;;;9.60;90.90;;;;;;5094251;28;20050;-58
2022/04/05 01:17:03;;;;;;;2.80;1.35;;;9.60;90.80;;;;;;5089759;28;20024;-58
2022/04/05 01:19:30;;;;;;;3.38;1.25;;;9.60;90.80;;;;;;5087485;28;20044;-61
2022/04/05 01:21:56;;;;;;;1.75;1.10;;;9.60;90.80;;;;;;5088738;28;20048;-62
2022/04/05 01:24:22;;;;;;;1.42;0.90;;;9.60;90.70;;;;;;5086676;28;20062;-62
2022/04/05 01:26:49;;;;;;;2.13;1.00;;;9.50;90.70;;;;;;5088874;28;20028;-59
2022/04/05 01:29:16;;;;;;;1.65;1.10;;;9.50;90.70;;;;;;5088834;28;20020;-62
2022/04/05 01:31:44;;;;;;;1.95;1.00;;;9.50;90.70;;;;;;5089385;28;20020;-62
2022/04/05 01:34:12;;;;;;;1.95;1.38;;;9.50;90.70;;;;;;5085296;28;20024;-62
2022/04/05 01:36:42;;;;;;;1.70;1.20;;;9.50;90.60;;;;;;5089180;28;20505;-60
2022/04/05 01:39:09;;;;;;;2.20;1.15;;;9.60;90.60;;;;;;5086079;28;20063;-59
2022/04/05 01:41:35;;;;;;;2.90;0.90;;;9.60;90.60;;;;;;5085258;28;20036;-61
2022/04/05 01:44:00;;;;;;;2.00;1.10;;;9.50;90.60;;;;;;5086424;28;20040;-58
2022/04/05 01:46:26;;;;;;;2.17;1.20;;;9.60;90.60;;;;;;5079044;28;20477;-58
2022/04/05 01:48:52;;;;;;;1.42;1.17;;;9.60;90.50;;;;;;5083617;28;20036;-59
2022/04/05 01:51:18;;;;;;;1.30;1.20;;;9.60;90.50;;;;;;5085514;28;20067;-61
2022/04/05 01:53:44;;;;;;;4.90;1.90;;;9.60;90.50;;;;;;5087951;28;20055;-58
2022/04/05 01:56:10;;;;;;;2.42;1.60;;;9.50;90.50;;;;;;5088340;28;20442;-58
2022/04/05 01:58:36;;;;;;;2.47;1.50;;;9.50;90.50;;;;;;5087758;28;20032;-61
2022/04/05 02:01:02;;;;;;;2.53;1.50;;;9.50;90.50;;;;;;5087331;28;20032;-63
2022/04/05 02:03:29;;;;;;;1.40;1.23;;;9.50;90.50;;;;;;5092076;28;20040;-61
2022/04/05 02:05:54;;;;;;;3.33;1.60;;;9.50;90.60;;;;;;5088358;28;20032;-61
2022/04/05 02:08:20;;;;;;;4.80;1.70;;;9.50;90.60;;;;;;5088614;28;20039;-61
2022/04/05 02:10:46;;;;;;;2.05;1.55;;;9.40;90.50;;;;;;5088051;28;20020;-62
2022/04/05 02:13:11;;;;;;;2.10;1.20;;;9.50;90.50;;;;;;5088817;28;20089;-62
2022/04/05 02:15:37;;;;;;;3.53;1.48;;;9.50;90.80;;;;;;5088469;28;20032;-62
2022/04/05 02:18:03;;;;;;;2.17;1.42;;;9.40;90.50;;;;;;5088651;28;20032;-62
2022/04/05 02:20:29;;;;;;;1.30;1.20;;;9.40;90.50;;;;;;5086213;28;20122;-59
2022/04/05 02:22:55;;;;;;;1.55;1.08;;;9.40;90.50;;;;;;5087495;28;20334;-59
2022/04/05 02:25:20;;;;;;;3.72;1.55;;;9.40;90.50;;;;;;5085609;28;20036;-59
2022/04/05 02:27:47;;;;;;;2.58;1.27;;;9.40;90.50;;;;;;5088687;28;20029;-60
2022/04/05 02:30:13;;;;;;;2.78;1.27;;;9.50;90.50;;;;;;5089830;28;20333;-59
2022/04/05 02:32:39;;;;;;;2.80;1.75;;;9.40;90.40;;;;;;5092512;28;20036;-59
2022/04/05 02:35:05;;;;;;;2.72;1.55;;;9.40;90.40;;;;;;5090699;28;20028;-59
2022/04/05 02:37:30;;;;;;;2.13;1.55;;;9.40;90.40;;;;;;5091153;28;20058;-59
2022/04/05 02:39:56;;;;;;;2.33;1.55;;;9.40;90.40;;;;;;5090978;28;20028;-59
2022/04/05 02:42:22;;;;;;;2.40;1.35;;;9.50;90.30;;;;;;5091843;28;20036;-59
2022/04/05 02:44:47;;;;;;;3.88;1.63;;;9.40;90.30;;;;;;5092126;28;20024;-59
2022/04/05 02:47:15;;;;;;;2.47;1.70;;;9.40;90.30;;;;;;5091596;28;20415;-59
2022/04/05 02:49:41;;;;;;;3.58;1.80;;;9.40;90.60;;;;;;5091340;28;20471;-62
2022/04/05 02:52:07;;;;;;;4.68;1.50;;;9.40;90.30;;;;;;5092112;28;20020;-62
2022/04/05 02:54:32;;;;;;;2.55;1.50;;;9.30;90.30;;;;;;5091861;28;20033;-59
2022/04/05 02:56:59;;;;;;;3.20;1.60;;;9.40;90.30;;;;;;5091919;28;20039;-59
2022/04/05 02:59:25;;;;;;;2.22;1.52;;;9.40;90.30;;;;;;5091129;28;20043;-59
2022/04/05 03:01:50;;;;;;;2.70;1.35;;;9.40;90.30;;;;;;5091773;28;20474;-59
2022/04/05 03:04:16;;;;;;;3.40;1.70;;;9.40;90.30;;;;;;5091506;28;20024;-59
2022/04/05 03:06:42;;;;;;;2.83;1.75;;;9.40;90.30;;;;;;5091482;28;20043;-59
2022/04/05 03:09:07;;;;;;;2.35;1.65;;;9.40;90.30;;;;;;5094239;28;20119;-59
2022/04/05 03:11:33;;;;;;;5.13;1.90;;;9.40;90.30;;;;;;5111034;28;20031;-57
2022/04/05 03:13:59;;;;;;;2.35;1.90;;;9.40;90.20;;;;;;5095101;28;20040;-58
2022/04/05 03:16:25;;;;;;;4.05;1.90;;;9.30;90.20;;;;;;5073165;28;20442;-62
2022/04/05 03:18:52;;;;;;;1.90;1.58;;;9.30;90.20;;;;;;5097928;28;20394;-59
2022/04/05 03:21:17;;;;;;;2.67;2.30;;;9.30;90.20;;;;;;5096736;28;20035;-59
2022/04/05 03:23:46;;;;;;;2.83;1.70;;;9.30;90.20;;;;;;5091872;28;20032;-62
2022/04/05 03:26:11;;;;;;;3.08;2.03;;;9.30;90.20;;;;;;5085230;28;20050;-59
2022/04/05 03:28:37;;;;;;;7.60;1.75;;;9.30;90.20;;;;;;5088521;28;20024;-62
2022/04/05 03:31:03;;;;;;;2.47;1.55;;;9.30;90.20;;;;;;5089519;28;20032;-62
2022/04/05 03:33:29;;;;;;;2.88;2.20;;;9.30;90.20;;;;;;5090616;28;20623;-59
2022/04/05 03:35:56;;;;;;;2.22;1.60;;;9.30;90.20;;;;;;5089988;28;20024;-59
2022/04/05 03:38:22;;;;;;;3.58;1.95;;;9.40;90.20;;;;;;5088194;28;20043;-59
2022/04/05 03:40:47;;;;;;;3.58;1.95;;;9.40;90.20;;;;;;5089269;28;20028;-59
2022/04/05 03:43:13;;;;;;;3.05;2.00;;;9.40;90.20;;;;;;5089574;28;20031;-59
2022/04/05 03:45:39;;;;;;;2.63;2.00;;;9.40;90.10;;;;;;5090311;28;20043;-59
2022/04/05 03:48:05;;;;;;;3.97;1.90;;;9.40;90.10;;;;;;5088717;28;20067;-59
2022/04/05 03:50:31;;;;;;;3.60;1.85;;;9.40;90.10;;;;;;5089185;28;20032;-59
2022/04/05 03:52:59;;;;;;;3.13;1.90;;;9.40;90.10;;;;;;5089797;28;20379;-59
2022/04/05 03:55:26;;;;;;;3.53;2.03;;;9.40;90.10;;;;;;5122200;27;20032;-62
2022/04/05 03:57:51;;;;;;;3.30;2.08;;;9.50;90.10;;;;;;5090991;28;20198;-59
2022/04/05 04:00:18;;;;;;;3.90;2.00;;;9.50;90.10;;;;;;5088504;28;20131;-59
2022/04/05 04:02:43;;;;;;;3.17;2.00;;;9.50;90.10;;;;;;5090686;28;20043;-59
2022/04/05 04:05:09;;;;;;;5.22;2.22;;;9.50;90.10;;;;;;5090692;28;20495;-59
2022/04/05 04:07:39;;;;;;;5.03;2.20;;;9.50;90.00;;;;;;5090744;28;20035;-62
2022/04/05 04:10:05;;;;;;;4.05;2.03;;;9.50;90.10;;;;;;5071416;28;20035;-62
2022/04/05 04:12:32;;;;;;;3.30;2.45;;;9.40;90.10;;;;;;5091372;28;20107;-62
2022/04/05 04:14:58;;;;;;;5.45;3.10;;;9.50;90.10;;;;;;5096232;28;20032;-62
2022/04/05 04:17:25;;;;;;;2.28;1.95;;;9.50;90.10;;;;;;5090705;28;20638;-62
2022/04/05 04:19:52;;;;;;;3.72;1.90;;;9.50;90.10;;;;;;5089766;28;20132;-62
2022/04/05 04:22:18;;;;;;;1.77;1.67;;;9.50;90.00;;;;;;5089859;28;20443;-62
2022/04/05 04:24:44;;;;;;;3.40;2.17;;;9.50;90.00;;;;;;5089611;28;20040;-62
2022/04/05 04:27:11;;;;;;;3.45;2.38;;;9.50;90.00;;;;;;5090160;28;20040;-62
2022/04/05 04:29:37;;;;;;;2.80;2.38;;;9.50;90.00;;;;;;5089593;28;20585;-62
2022/04/05 04:32:04;;;;;;;3.05;2.35;;;9.50;90.00;;;;;;5090564;28;20024;-62
2022/04/05 04:34:30;;;;;;;3.00;2.70;;;9.50;90.00;;;;;;5093072;28;20502;-59
2022/04/05 04:36:56;;;;;;;3.00;2.30;;;9.50;90.00;;;;;;5085179;28;20028;-59
2022/04/05 04:39:23;;;;;;;2.65;2.33;;;9.50;90.00;;;;;;5092583;28;20054;-62
2022/04/05 04:41:48;;;;;;;3.60;2.25;;;9.50;90.00;;;;;;5083526;28;20043;-62
2022/04/05 04:44:14;;;;;;;5.13;2.55;;;9.50;90.00;;;;;;5096565;28;20036;-62
2022/04/05 04:46:40;;;;;;;4.03;2.25;;;9.50;90.00;;;;;;5103383;28;20026;-62
2022/04/05 04:49:06;;;;;;;3.78;2.67;;;9.50;90.00;;;;;;5089511;28;20115;-62
2022/04/05 04:51:32;;;;;;;3.17;2.35;;;9.50;90.10;;;;;;5092685;28;20016;-62
2022/04/05 04:53:57;;;;;;;3.78;2.47;;;9.50;90.10;;;;;;5097132;28;20027;-62
2022/04/05 04:56:23;;;;;;;4.80;3.47;;;9.50;90.10;;;;;;5086788;28;20097;-62
2022/04/05 04:58:49;;;;;;;4.63;3.38;;;9.50;90.10;;;;;;5088615;28;20157;-59
2022/04/05 05:01:14;;;;;;;4.95;3.45;;;9.50;90.10;;;;;;5094823;28;20379;-59
2022/04/05 05:03:40;;;;;;;4.72;2.90;;;9.50;90.20;;;;;;5110137;28;20038;-59
2022/04/05 05:06:06;;;;;;;5.68;3.95;;;9.50;90.20;;;;;;5107306;28;20035;-61
2022/04/05 05:08:32;;;;;;;5.32;4.28;;;9.50;90.20;;;;;;5109703;28;20073;-62
2022/04/05 05:10:58;;;;;;;6.38;4.13;;;9.50;90.20;;;;;;5108887;28;20490;-61
2022/04/05 05:13:23;;;;;;;5.97;4.35;;;9.40;90.20;;;;;;5109724;28;20023;-62
2022/04/05 05:15:50;;;;;;;6.00;4.55;;;9.40;90.20;;;;;;5085361;28;20062;-59
2022/04/05 05:18:16;;;;;;;6.65;5.05;;;9.50;90.20;;;;;;5087322;28;20398;-60
2022/04/05 05:20:42;;;;;;;5.10;4.45;;;9.50;90.20;;;;;;5090153;28;20023;-59
2022/04/05 05:23:07;;;;;;;5.53;4.60;;;9.50;90.20;;;;;;5091455;28;20028;-59
2022/04/05 05:25:33;;;;;;;5.13;4.28;;;9.50;90.20;;;;;;5098035;28;20032;-59
2022/04/05 05:27:59;;;;;;;5.05;4.47;;;9.50;90.20;;;;;;5097275;28;20043;-59
2022/04/05 05:30:25;;;;;;;5.50;4.68;;;9.50;90.30;;;;;;5088754;28;20491;-59
2022/04/05 05:32:51;;;;;;;7.80;5.68;;;9.40;90.30;;;;;;5091564;28;20029;-59
2022/04/05 05:35:19;;;;;;;7.00;6.15;;;9.40;90.30;;;;;;5088847;28;20024;-59
2022/04/05 05:37:47;;;;;;;5.50;4.88;;;9.40;90.40;;;;;;5088459;28;20146;-62
2022/04/05 05:40:14;;;;;;;7.25;6.18;;;9.40;90.40;;;;;;5087452;28;20394;-62
2022/04/05 05:43:10;;;;;;;9.00;6.80;;;9.40;90.40;;;;;;5079239;28;20414;-59
2022/04/05 05:45:36;;;;;;;8.00;6.35;;;9.40;90.50;;;;;;5089692;28;20036;-59
2022/04/05 05:48:04;;;;;;;7.38;6.32;;;9.40;90.50;;;;;;5096192;28;20044;-59
2022/04/05 05:50:30;;;;;;;8.00;6.57;;;9.40;90.50;;;;;;5091889;28;20447;-59
2022/04/05 05:52:58;;;;;;;8.73;6.78;;;9.40;90.50;;;;;;5087195;28;20120;-59
2022/04/05 05:55:24;;;;;;;10.80;7.57;;;9.40;90.50;;;;;;5088447;28;20036;-58
2022/04/05 05:57:50;;;;;;;8.45;7.63;;;9.40;90.50;;;;;;5089294;28;20030;-58
2022/04/05 06:00:21;;;;;;;7.50;6.80;;;9.40;90.50;;;;;;5088532;28;20036;-58
2022/04/05 06:02:48;;;;;;;8.63;7.32;;;9.40;90.60;;;;;;5087508;28;20024;-58
2022/04/05 06:05:14;;;;;;;9.38;8.32;;;9.40;90.60;;;;;;5092372;28;20089;-58
2022/04/05 06:07:41;;;;;;;8.70;7.82;;;9.40;90.60;;;;;;5074400;28;20028;-58
2022/04/05 06:10:08;;;;;;;10.93;8.88;;;9.40;90.70;;;;;;5092251;28;20024;-58
2022/04/05 06:12:38;;;;;;;10.63;8.73;;;9.40;90.70;;;;;;5091446;28;20264;-58
2022/04/05 06:15:05;;;;;;;10.70;8.80;;;9.40;90.80;;;;;;5092424;28;20095;-60
2022/04/05 06:17:30;;;;;;;11.93;9.55;;;9.40;90.90;;;;;;5092420;28;20036;-58
2022/04/05 06:19:56;;;;;;;11.18;9.55;;;9.40;90.90;;;;;;5092223;28;20032;-58
2022/04/05 06:22:22;;;;;;;11.93;9.50;;;9.40;91.00;;;;;;5092226;28;20155;-58
2022/04/05 06:24:48;;;;;;;11.68;9.45;;;9.40;91.00;;;;;;5094991;28;20111;-58
2022/04/05 06:27:14;;;;;;;11.98;9.75;;;9.40;91.10;;;;;;5094579;28;20036;-58
2022/04/05 06:29:40;;;;;;;11.02;9.18;;;9.40;91.10;;;;;;5092130;28;20082;-58
2022/04/05 06:32:06;;;;;;;12.25;10.38;;;9.40;91.20;;;;;;5092140;28;20035;-61
2022/04/05 06:34:32;;;;;;;13.75;11.20;;;9.50;91.30;;;;;;5092133;28;20028;-58
2022/04/05 06:36:58;;;;;;;13.98;11.50;;;9.50;91.40;;;;;;5091333;28;20032;-59
2022/04/05 06:39:25;;;;;;;11.52;9.82;;;9.50;91.50;;;;;;5090402;28;20089;-59
2022/04/05 06:41:52;;;;;;;13.00;10.82;;;9.50;91.50;;;;;;5083630;28;20394;-61
2022/04/05 06:44:18;;;;;;;11.68;9.90;;;9.50;91.60;;;;;;5090782;28;20031;-61
2022/04/05 06:46:43;;;;;;;12.50;10.85;;;9.60;91.70;;;;;;5091086;28;20029;-61
2022/04/05 06:49:09;;;;;;;11.80;9.80;;;9.60;91.70;;;;;;5090464;28;20036;-61
2022/04/05 06:51:35;;;;;;;13.27;11.30;;;9.60;91.80;;;;;;5067591;28;20119;-61
2022/04/05 06:54:00;;;;;;;11.25;9.93;;;9.70;91.80;;;;;;5092858;28;20443;-62
2022/04/05 06:56:26;;;;;;;10.50;9.40;;;9.70;91.80;;;;;;5089050;28;20036;-61
2022/04/05 06:58:53;;;;;;;10.13;8.50;;;9.70;91.90;;;;;;5090003;28;20086;-58
2022/04/05 07:01:18;;;;;;;11.85;9.32;;;9.80;92.00;;;;;;5093148;28;20084;-59
2022/04/05 07:03:44;;;;;;;10.23;9.02;;;9.80;92.10;;;;;;5094814;28;20036;-59
2022/04/05 07:06:10;;;;;;;10.50;9.27;;;9.90;92.20;;;;;;5087902;28;20478;-59
2022/04/05 07:08:36;;;;;;;10.65;9.15;;;9.90;92.20;;;;;;5089853;28;20031;-62
2022/04/05 07:11:02;;;;;;;11.85;8.90;;;9.90;92.20;;;;;;5089015;28;20572;-62
2022/04/05 07:13:30;;;;;;;11.40;10.00;;;9.90;92.20;;;;;;5089704;28;20162;-62
2022/04/05 07:15:56;;;;;;;13.77;10.25;;;10.00;92.20;;;;;;5089111;28;20043;-59
2022/04/05 07:18:22;;;;;;;12.88;11.18;;;10.00;92.20;;;;;;5088863;28;20031;-62
2022/04/05 07:20:48;;;;;;;13.25;10.32;;;10.00;92.20;;;;;;5089026;28;20479;-62
2022/04/05 07:23:15;;;;;;;14.80;11.43;;;10.00;92.20;;;;;;5090502;28;20377;-62
2022/04/05 07:25:41;;;;;;;13.48;10.65;;;10.10;92.30;;;;;;5085945;28;20041;-61
2022/04/05 07:28:07;;;;;;;15.00;10.52;;;10.10;92.30;;;;;;5090202;28;20852;-62
2022/04/05 07:30:32;;;;;;;12.80;10.00;;;10.10;92.20;;;;;;5098188;28;20024;-59
2022/04/05 07:32:58;;;;;;;11.75;9.90;;;10.10;92.20;;;;;;5091079;28;20528;-59
2022/04/05 07:35:24;;;;;;;14.65;11.10;;;10.10;92.30;;;;;;5091331;28;20039;-59
2022/04/05 07:37:50;;;;;;;13.23;9.82;;;10.10;92.20;;;;;;5090750;28;20406;-59
2022/04/05 07:40:16;;;;;;;13.07;9.85;;;10.10;92.30;;;;;;5068615;28;20423;-59
2022/04/05 07:42:46;;;;;;;14.90;9.48;;;10.10;92.30;;;;;;5070720;28;20060;-62
2022/04/05 07:45:13;;;;;;;12.50;9.20;;;10.20;92.30;;;;;;5087001;28;20051;-61
2022/04/05 07:47:39;;;;;;;13.27;9.77;;;10.20;92.30;;;;;;5090376;28;20744;-61
2022/04/05 07:50:06;;;;;;;11.35;9.15;;;10.30;92.20;;;;;;5085032;28;20050;-61
2022/04/05 07:52:32;;;;;;;14.50;9.35;;;10.30;92.20;;;;;;5091282;28;20028;-61
2022/04/05 07:54:59;;;;;;;12.88;9.40;;;10.40;92.20;;;;;;5070256;28;20364;-61
2022/04/05 07:57:24;;;;;;;13.75;8.90;;;10.40;92.20;;;;;;5083651;28;20040;-59
2022/04/05 07:59:50;;;;;;;13.32;9.15;;;10.40;92.10;;;;;;5085479;28;20533;-59
2022/04/05 08:02:16;;;;;;;12.05;8.35;;;10.40;92.10;;;;;;5094750;28;20036;-59
2022/04/05 08:04:42;;;;;;;17.50;9.55;;;10.40;92.10;;;;;;5090946;28;20043;-60
2022/04/05 08:07:07;;;;;;;12.35;8.65;;;10.50;92.10;;;;;;5089418;28;20035;-58
2022/04/05 08:09:33;;;;;;;10.25;8.52;;;10.50;92.10;;;;;;5093912;28;20032;-59
2022/04/05 08:11:59;;;;;;;10.05;7.43;;;10.50;92.10;;;;;;5092456;28;20507;-59
2022/04/05 08:14:28;;;;;;;8.75;7.68;;;10.40;92.10;;;;;;5094329;28;20024;-59
2022/04/05 08:16:57;;;;;;;10.63;7.28;;;10.40;92.10;;;;;;5091246;28;20057;-59
2022/04/05 08:19:24;;;;;;;12.65;6.97;;;10.40;92.10;;;;;;5101794;28;20355;-59
2022/04/05 08:21:50;;;;;;;10.75;7.07;;;10.50;92.20;;;;;;5095749;28;20024;-61
2022/04/05 08:24:17;;;;;;;7.68;6.63;;;10.50;92.10;;;;;;5096333;28;20020;-61
2022/04/05 08:26:43;;;;;;;9.23;6.00;;;10.50;92.10;;;;;;5091368;28;20067;-61
2022/04/05 08:29:09;;;;;;;10.10;6.20;;;10.50;92.10;;;;;;5088207;28;20064;-61
2022/04/05 08:31:34;;;;;;;9.73;6.90;;;10.50;92.10;;;;;;5089970;28;20111;-61
2022/04/05 08:34:00;;;;;;;8.85;7.25;;;10.50;92.10;;;;;;5081922;28;20071;-61
2022/04/05 08:36:26;;;;;;;8.32;7.13;;;10.50;92.10;;;;;;5088384;28;20478;-59
2022/04/05 08:38:51;;;;;;;8.95;7.80;;;10.50;92.10;;;;;;5088135;28;20095;-59
2022/04/05 08:41:19;;;;;;;8.18;6.20;;;10.50;92.10;;;;;;5087474;28;20434;-59
2022/04/05 08:43:49;;;;;;;10.38;6.53;;;10.60;92.10;;;;;;5088904;28;20066;-59
2022/04/05 08:46:17;;;;;;;7.00;5.82;;;10.60;92.10;;;;;;5104238;28;20027;-62
2022/04/05 08:48:46;;;;;;;8.40;6.28;;;10.60;92.00;;;;;;5097826;28;20054;-59
2022/04/05 08:51:12;;;;;;;8.25;5.80;;;10.60;92.00;;;;;;5099627;28;20032;-62
2022/04/05 08:53:38;;;;;;;8.68;6.15;;;10.70;92.00;;;;;;5086618;28;20024;-59
2022/04/05 08:56:04;;;;;;;10.25;5.55;;;10.70;92.00;;;;;;5089545;28;20248;-61
2022/04/05 08:58:30;;;;;;;10.45;6.38;;;10.70;92.00;;;;;;5086250;28;20051;-61
2022/04/05 09:00:56;;;;;;;9.50;6.70;;;10.70;92.00;;;;;;5087176;28;20414;-60
2022/04/05 09:03:22;;;;;;;9.90;6.28;;;10.80;92.00;;;;;;5088464;28;20479;-61
2022/04/05 09:05:48;;;;;;;11.93;7.03;;;10.80;92.00;;;;;;5088986;28;20031;-62
2022/04/05 09:08:22;;;;;;;10.60;6.40;;;10.80;91.90;;;;;;5081008;28;20036;-59
2022/04/05 09:10:53;;;;;;;10.20;7.35;;;10.80;91.90;;;;;;5086015;28;20031;-59
2022/04/05 09:13:22;;;;;;;11.60;6.38;;;10.80;91.90;;;;;;5086109;28;20058;-60
2022/04/05 09:15:53;;;;;;;10.10;6.28;;;10.90;91.90;;;;;;5087089;28;20432;-59
2022/04/05 09:18:39;;;;;;;9.32;6.30;;;10.90;91.90;;;;;;5082691;28;20147;-61
2022/04/05 09:21:07;;;;;;;8.18;6.38;;;11.00;91.90;;;;;;5085471;28;20032;-62
2022/04/05 09:23:38;;;;;;;11.00;7.05;;;11.10;91.90;;;;;;5086877;28;20475;-59
2022/04/05 09:26:09;;;;;;;9.30;6.72;;;11.10;91.80;;;;;;5088220;28;20032;-59
2022/04/05 09:28:43;;;;;;;7.72;6.25;;;11.10;91.70;;;;;;5092282;28;20066;-59
2022/04/05 09:31:11;;;;;;;8.90;6.20;;;11.20;91.80;;;;;;5088072;28;20632;-59
2022/04/05 09:33:39;;;;;;;10.02;6.13;;;11.20;91.70;;;;;;5086022;28;20024;-61
2022/04/05 09:36:16;;;;;;;10.75;6.25;;;11.30;91.70;;;;;;5093735;28;20031;-60
2022/04/05 09:38:43;;;;;;;13.13;7.18;;;11.30;91.60;;;;;;5094364;28;20406;-59
2022/04/05 09:41:33;;;;;;;8.60;6.85;;;11.30;91.60;;;;;;5104581;28;20047;-59
2022/04/05 09:44:00;;;;;;;9.80;6.25;;;11.30;91.60;;;;;;5098876;28;20557;-59
2022/04/05 09:46:28;;;;;;;8.93;6.57;;;11.30;91.60;;;;;;5092942;28;20069;-59
2022/04/05 09:49:05;;;;;;;9.18;6.50;;;11.30;91.70;;;;;;5049849;28;20452;-61
2022/04/05 09:51:36;;;;;;;9.70;6.10;;;11.30;91.70;;;;;;5066255;28;20054;-61
2022/04/05 09:54:02;;;;;;;7.55;5.90;;;11.30;91.70;;;;;;5078902;28;20031;-61
2022/04/05 09:56:33;;;;;;;9.27;5.20;;;11.40;91.70;;;;;;5066460;28;20384;-61
2022/04/05 09:59:22;;;;;;;12.27;5.75;;;11.30;91.70;;;;;;5073668;28;20054;-62
2022/04/05 10:01:49;;;;;;;7.18;5.10;;;11.30;91.60;;;;;;5076452;28;20425;-61
2022/04/05 10:04:18;;;;;;;5.25;4.28;;;11.20;91.60;;;;;;5077939;28;20027;-61
2022/04/05 10:06:48;;;;;;;5.90;4.20;;;11.20;91.70;;;;;;5075138;28;20387;-61
2022/04/05 10:09:17;;;;;;;5.45;4.40;;;11.20;91.80;;;;;;5078902;28;20032;-59
2022/04/05 10:11:44;;;;;;;5.07;3.80;;;11.10;91.80;;;;;;5083257;28;20028;-59
2022/04/05 10:14:20;;;;;;;6.25;4.10;;;11.10;91.80;;;;;;5078500;28;20024;-59
2022/04/05 10:16:46;;;;;;;7.70;4.82;;;11.20;91.90;;;;;;5067717;28;20031;-60
2022/04/05 10:19:12;;;;;;;5.72;4.60;;;11.20;91.90;;;;;;5065821;28;20054;-59
2022/04/05 10:21:41;;;;;;;6.57;4.53;;;11.30;91.90;;;;;;5067542;28;20030;-61
2022/04/05 10:24:09;;;;;;;6.72;4.75;;;11.30;91.80;;;;;;5066315;28;20039;-61
2022/04/05 10:26:40;;;;;;;6.53;4.85;;;11.40;91.70;;;;;;5067816;28;20033;-61
2022/04/05 10:29:10;;;;;;;5.40;4.38;;;11.40;91.70;;;;;;5059528;28;20027;-62
2022/04/05 10:31:41;;;;;;;5.78;4.30;;;11.40;91.60;;;;;;5061587;28;20100;-59
2022/04/05 10:34:16;;;;;;;6.40;4.22;;;11.40;91.60;;;;;;5064796;28;20539;-59
2022/04/05 10:37:03;;;;;;;4.90;3.95;;;11.40;91.70;;;;;;5067681;28;20047;-59
2022/04/05 10:39:28;;;;;;;4.05;3.42;;;11.40;91.80;;;;;;5064944;28;20043;-59
2022/04/05 10:42:10;;;;;;;4.28;3.33;;;11.40;91.80;;;;;;5065552;28;20032;-59
2022/04/05 10:44:39;;;;;;;4.43;3.75;;;11.40;91.80;;;;;;5069914;28;20032;-59
2022/04/05 10:47:06;;;;;;;4.13;3.75;;;11.50;91.70;;;;;;5074354;28;20440;-61
2022/04/05 10:49:43;;;;;;;5.25;4.68;;;11.50;91.70;;;;;;5092960;28;20028;-59
2022/04/05 10:52:15;;;;;;;5.80;4.68;;;11.50;91.60;;;;;;5084165;28;20068;-60
2022/04/05 10:54:49;;;;;;;6.88;4.80;;;11.60;91.70;;;;;;5091897;28;20032;-60
2022/04/05 10:57:18;;;;;;;7.70;5.50;;;11.70;91.60;;;;;;5095177;28;20028;-60
2022/04/05 10:59:57;;;;;;;7.00;5.60;;;11.80;91.60;;;;;;5096434;28;20032;-60
2022/04/05 11:02:43;;;;;;;7.70;6.25;;;11.80;91.40;;;;;;5094228;28;20073;-59
2022/04/05 11:05:15;;;;;;;7.80;6.07;;;11.90;91.30;;;;;;5097695;28;20096;-61
2022/04/05 11:07:52;;;;;;;7.53;6.20;;;11.80;91.10;;;;;;5089440;28;20459;-61
2022/04/05 11:10:37;;;;;;;6.70;5.78;;;11.80;91.10;;;;;;5097721;28;20024;-62
2022/04/05 11:13:08;;;;;;;8.48;6.82;;;11.80;91.20;;;;;;5086596;28;20099;-62
2022/04/05 11:15:51;;;;;;;9.85;5.95;;;11.80;91.10;;;;;;5096281;28;20026;-59
2022/04/05 11:18:20;;;;;;;8.45;6.38;;;11.80;91.10;;;;;;5088004;28;20031;-59
2022/04/05 11:20:48;;;;;;;8.70;6.40;;;11.80;91.10;;;;;;5103221;28;20031;-61
2022/04/05 11:23:16;;;;;;;8.80;6.13;;;11.70;91.40;;;;;;5095133;28;20035;-62
2022/04/05 11:25:43;;;;;;;8.77;6.60;;;11.70;91.10;;;;;;5086251;28;20024;-61
2022/04/05 11:28:22;;;;;;;9.23;6.20;;;11.60;91.10;;;;;;5091638;28;20028;-61
2022/04/05 11:31:02;;;;;;;8.05;6.30;;;11.60;91.20;;;;;;5094472;28;20360;-61
2022/04/05 11:33:31;;;;;;;8.18;5.97;;;11.60;91.10;;;;;;5074460;28;20060;-62
2022/04/05 11:36:02;;;;;;;8.70;5.75;;;11.50;91.20;;;;;;5091073;28;20409;-59
2022/04/05 11:38:32;;;;;;;9.35;6.22;;;11.50;91.20;;;;;;5116211;27;20077;-59
2022/04/05 11:41:02;;;;;;;9.82;6.55;;;11.60;91.20;;;;;;5096961;28;20052;-61
2022/04/05 11:43:39;;;;;;;7.47;5.93;;;11.60;91.30;;;;;;5091934;28;20089;-61
2022/04/05 11:46:05;;;;;;;6.57;5.78;;;11.60;91.30;;;;;;5102331;28;20473;-61
2022/04/05 11:48:32;;;;;;;7.32;5.38;;;11.60;91.30;;;;;;5102349;28;20814;-60
2022/04/05 11:51:01;;;;;;;8.00;6.10;;;11.70;91.40;;;;;;5095559;28;20077;-59
2022/04/05 11:53:29;;;;;;;6.63;5.82;;;11.80;91.60;;;;;;5090091;28;20115;-61
2022/04/05 11:56:22;;;;;;;9.75;6.50;;;11.90;91.20;;;;;;5083167;28;20054;-62
2022/04/05 11:58:50;;;;;;;8.18;5.90;;;12.00;91.10;;;;;;5079637;28;20506;-63
2022/04/05 12:01:25;;;;;;;8.48;5.85;;;12.00;91.10;;;;;;5084723;28;20039;-61
2022/04/05 12:04:03;;;;;;;10.05;6.20;;;12.00;90.70;;;;;;5086326;28;20459;-61
2022/04/05 12:06:32;;;;;;;7.32;5.78;;;12.00;90.80;;;;;;5087846;28;20064;-61
2022/04/05 12:09:02;;;;;;;9.05;5.55;;;12.00;90.70;;;;;;5083806;28;20136;-61
2022/04/05 12:11:30;;;;;;;8.50;6.80;;;12.00;90.80;;;;;;5084397;28;20027;-61
2022/04/05 12:13:59;;;;;;;9.35;5.70;;;12.10;90.80;;;;;;5088947;28;20115;-60
2022/04/05 12:16:43;;;;;;;9.70;5.75;;;12.10;90.80;;;;;;5084846;28;20038;-59
2022/04/05 12:19:09;;;;;;;7.13;6.10;;;12.10;90.80;;;;;;5091544;28;20115;-59
2022/04/05 12:21:35;;;;;;;8.68;5.93;;;12.10;90.60;;;;;;5082941;28;20119;-59
2022/04/05 12:24:01;;;;;;;6.63;5.53;;;12.10;90.60;;;;;;5090556;28;20035;-59
2022/04/05 12:26:31;;;;;;;7.95;5.82;;;12.10;90.70;;;;;;5079123;28;20463;-59
2022/04/05 12:28:58;;;;;;;9.60;5.95;;;12.10;90.70;;;;;;5084038;28;20039;-59
2022/04/05 12:31:29;;;;;;;8.23;5.50;;;12.10;90.60;;;;;;5084088;28;20568;-60
2022/04/05 12:34:05;;;;;;;8.82;5.82;;;12.20;90.60;;;;;;5089600;28;20050;-62
2022/04/05 12:36:33;;;;;;;8.45;6.47;;;12.20;90.60;;;;;;5089690;28;20039;-60
2022/04/05 12:38:59;;;;;;;8.77;6.10;;;12.30;90.60;;;;;;5089793;28;20040;-59
2022/04/05 12:41:25;;;;;;;9.05;6.07;;;12.30;90.80;;;;;;5087359;28;20068;-59
2022/04/05 12:44:12;;;;;;;7.15;6.00;;;12.30;90.50;;;;;;5088853;28;20075;-60
2022/04/05 12:46:57;;;;;;;8.13;6.38;;;12.30;90.50;;;;;;5088856;28;20116;-61
2022/04/05 12:49:35;;;;;;;8.93;6.05;;;12.30;90.40;;;;;;5087907;28;20040;-59
2022/04/05 12:52:22;;;;;;;9.20;5.93;;;12.30;90.40;;;;;;5085669;28;20095;-59
2022/04/05 12:54:53;;;;;;;7.88;5.28;;;12.30;90.30;;;;;;5088557;28;20119;-59